createdAt,value
2022-12-04T00:00:37.176Z,73.92
2022-12-04T00:04:04.727Z,73.99
2022-12-04T00:07:31.486Z,73.96
2022-12-04T00:10:58.883Z,73.90
2022-12-04T00:14:27.114Z,74.01
2022-12-04T00:17:54.056Z,74.09
2022-12-04T00:21:21.914Z,74.26
2022-12-04T00:24:48.825Z,74.38
2022-12-04T00:28:15.808Z,74.50
2022-12-04T00:31:43.809Z,74.38
2022-12-04T00:35:11.765Z,74.58
2022-12-04T00:38:39.287Z,74.69
2022-12-04T00:42:06.119Z,74.77
2022-12-04T00:45:32.489Z,74.67
2022-12-04T00:49:02.895Z,74.70
2022-12-04T00:52:29.602Z,74.58
2022-12-04T00:55:56.599Z,74.61
2022-12-04T00:59:23.466Z,74.65
2022-12-04T01:03:10.059Z,74.49
2022-12-04T01:06:42.044Z,74.46
2022-12-04T01:10:13.582Z,74.42
2022-12-04T01:13:41.002Z,74.48
2022-12-04T01:17:09.735Z,74.61
2022-12-04T01:20:35.744Z,74.50
2022-12-04T01:24:02.447Z,74.61
2022-12-04T01:27:29.225Z,74.50
2022-12-04T01:31:10.452Z,74.60
2022-12-04T01:34:39.931Z,74.67
2022-12-04T01:38:10.213Z,75.00
2022-12-04T01:41:38.369Z,74.91
2022-12-04T01:45:36.648Z,75.05
2022-12-04T01:49:04.696Z,75.16
2022-12-04T01:52:31.384Z,75.20
2022-12-04T01:55:58.889Z,75.15
2022-12-04T01:59:29.831Z,75.13
2022-12-04T02:02:56.929Z,75.13
2022-12-04T02:06:24.394Z,75.22
2022-12-04T02:09:56.539Z,75.13
2022-12-04T02:13:32.659Z,75.08
2022-12-04T02:17:10.288Z,74.98
2022-12-04T02:20:45.122Z,75.00
2022-12-04T02:24:28.771Z,75.06
2022-12-04T02:28:04.930Z,74.99
2022-12-04T02:31:38.529Z,74.90
2022-12-04T02:35:08.773Z,75.09
2022-12-04T02:38:42.161Z,75.05
2022-12-04T02:42:17.063Z,75.17
2022-12-04T02:45:47.957Z,75.29
2022-12-04T02:49:19.939Z,75.23
2022-12-04T02:52:54.818Z,75.39
2022-12-04T02:56:27.807Z,75.49
2022-12-04T02:59:58.771Z,75.53
2022-12-04T03:03:29.842Z,75.55
2022-12-04T03:07:01.233Z,75.57
2022-12-04T03:10:34.258Z,75.64
2022-12-04T03:14:08.337Z,75.69
2022-12-04T03:17:40.452Z,75.78
2022-12-04T03:21:12.485Z,75.77
2022-12-04T03:24:42.431Z,75.61
2022-12-04T03:28:20.423Z,75.45
2022-12-04T03:31:52.697Z,75.37
2022-12-04T03:35:25.017Z,75.33
2022-12-04T03:38:58.760Z,75.44
2022-12-04T03:42:31.629Z,75.41
2022-12-04T03:46:05.167Z,75.29
2022-12-04T03:49:40.000Z,75.45
2022-12-04T03:53:16.204Z,75.57
2022-12-04T03:56:46.364Z,75.58
2022-12-04T04:00:18.230Z,75.65
2022-12-04T04:03:50.487Z,75.82
2022-12-04T04:07:23.161Z,75.72
2022-12-04T04:10:50.822Z,75.84
2022-12-04T04:14:52.060Z,75.92
2022-12-04T04:18:36.492Z,75.74
2022-12-04T04:22:41.710Z,76.03
2022-12-04T04:26:10.429Z,76.02
2022-12-04T04:29:39.897Z,75.96
2022-12-04T04:33:12.719Z,75.78
2022-12-04T04:36:47.188Z,75.69
2022-12-04T04:40:20.424Z,75.65
2022-12-04T04:43:51.087Z,75.57
2022-12-04T04:47:28.214Z,75.69
2022-12-04T04:50:57.499Z,75.74
2022-12-04T04:54:26.640Z,75.61
2022-12-04T04:57:53.418Z,75.59
2022-12-04T05:01:23.176Z,75.52
2022-12-04T05:04:49.964Z,75.63
2022-12-04T05:08:16.983Z,75.67
2022-12-04T05:11:43.776Z,75.76
2022-12-04T05:15:12.165Z,75.86
2022-12-04T05:18:38.553Z,75.92
2022-12-04T05:22:05.848Z,75.93
2022-12-04T05:25:32.089Z,76.08
2022-12-04T05:28:58.935Z,76.17
2022-12-04T05:32:27.235Z,75.80
2022-12-04T05:36:01.506Z,76.13
2022-12-04T05:39:27.982Z,76.13
2022-12-04T05:42:54.676Z,76.15
2022-12-04T05:46:21.133Z,76.08
2022-12-04T05:49:47.425Z,76.06
2022-12-04T05:53:14.009Z,75.88
2022-12-04T05:56:41.021Z,75.84
2022-12-04T06:00:10.466Z,76.02
2022-12-04T06:03:39.846Z,75.77
2022-12-04T06:07:07.293Z,75.82
2022-12-04T06:10:37.313Z,75.84
2022-12-04T06:14:06.171Z,75.67
2022-12-04T06:17:32.842Z,75.79
2022-12-04T06:21:02.155Z,75.88
2022-12-04T06:24:29.032Z,75.77
2022-12-04T06:27:56.174Z,75.92
2022-12-04T06:31:23.321Z,76.06
2022-12-04T06:34:54.147Z,76.12
2022-12-04T06:38:21.980Z,76.16
2022-12-04T06:41:49.237Z,76.38
2022-12-04T06:45:16.384Z,76.18
2022-12-04T06:48:46.186Z,76.04
2022-12-04T06:52:13.123Z,76.22
2022-12-04T06:55:39.750Z,76.15
2022-12-04T06:59:07.332Z,76.10
2022-12-04T07:02:35.027Z,76.19
2022-12-04T07:06:13.506Z,75.91
2022-12-04T07:09:40.197Z,76.00
2022-12-04T07:13:07.614Z,75.80
2022-12-04T07:16:40.266Z,75.99
2022-12-04T07:20:09.607Z,75.83
2022-12-04T07:23:36.304Z,75.94
2022-12-04T07:27:02.998Z,75.91
2022-12-04T07:30:30.932Z,75.86
2022-12-04T07:33:58.199Z,76.01
2022-12-04T07:37:26.680Z,76.17
2022-12-04T07:40:53.572Z,76.33
2022-12-04T07:44:28.360Z,76.46
2022-12-04T07:47:54.835Z,76.57
2022-12-04T07:51:23.553Z,76.53
2022-12-04T07:54:50.727Z,76.41
2022-12-04T07:58:17.785Z,76.18
2022-12-04T08:01:44.640Z,76.58
2022-12-04T08:05:12.130Z,76.20
2022-12-04T08:08:39.238Z,76.16
2022-12-04T08:12:05.834Z,76.34
2022-12-04T08:15:32.724Z,76.29
2022-12-04T08:18:59.769Z,76.26
2022-12-04T08:22:26.942Z,76.16
2022-12-04T08:25:53.531Z,76.16
2022-12-04T08:29:20.446Z,76.16
2022-12-04T08:32:46.753Z,76.26
2022-12-04T08:36:16.050Z,76.27
2022-12-04T08:39:42.731Z,76.35
2022-12-04T08:43:10.711Z,76.37
2022-12-04T08:46:37.643Z,76.42
2022-12-04T08:50:05.432Z,76.55
2022-12-04T08:53:33.669Z,76.74
2022-12-04T08:57:04.058Z,76.78
2022-12-04T09:00:31.820Z,76.74
2022-12-04T09:03:59.891Z,76.61
2022-12-04T09:07:27.541Z,76.67
2022-12-04T09:10:54.501Z,76.59
2022-12-04T09:14:26.066Z,76.55
2022-12-04T09:17:54.065Z,76.56
2022-12-04T09:21:22.942Z,76.76
2022-12-04T09:24:51.661Z,76.69
2022-12-04T09:28:19.204Z,76.63
2022-12-04T09:31:46.695Z,76.51
2022-12-04T09:35:13.710Z,76.64
2022-12-04T09:38:40.550Z,76.47
2022-12-04T09:42:26.855Z,76.54
2022-12-04T09:45:57.674Z,76.51
2022-12-04T09:49:28.379Z,76.63
2022-12-04T09:52:59.018Z,76.57
2022-12-04T09:56:30.583Z,76.61
2022-12-04T09:59:58.967Z,76.98
2022-12-04T10:03:29.789Z,76.98
2022-12-04T10:07:04.522Z,76.69
2022-12-04T10:10:39.568Z,76.95
2022-12-04T10:14:58.644Z,76.98
2022-12-04T10:18:42.566Z,76.88
2022-12-04T10:22:19.331Z,76.53
2022-12-04T10:25:46.303Z,76.51
2022-12-04T10:29:21.874Z,76.49
2022-12-04T10:32:59.663Z,76.64
2022-12-04T10:36:34.160Z,76.53
2022-12-04T10:40:07.795Z,76.56
2022-12-04T10:43:43.260Z,76.37
2022-12-04T10:47:15.143Z,76.51
2022-12-04T10:50:42.074Z,76.42
2022-12-04T10:54:20.049Z,76.49
2022-12-04T10:57:47.764Z,76.54
2022-12-04T11:01:16.502Z,76.69
2022-12-04T11:04:44.633Z,76.84
2022-12-04T11:08:21.418Z,76.89
2022-12-04T11:11:48.262Z,76.71
2022-12-04T11:15:18.543Z,76.95
2022-12-04T11:18:53.052Z,76.73
2022-12-04T11:22:22.682Z,76.77
2022-12-04T11:25:51.994Z,76.84
2022-12-04T11:29:20.511Z,76.61
2022-12-04T11:33:02.228Z,76.43
2022-12-04T11:36:33.741Z,76.46
2022-12-04T11:40:19.894Z,76.36
2022-12-04T11:43:55.243Z,76.56
2022-12-04T11:47:26.952Z,76.43
2022-12-04T11:51:03.819Z,76.40
2022-12-04T11:54:37.242Z,76.59
2022-12-04T11:58:19.717Z,76.45
2022-12-04T12:01:58.028Z,76.50
2022-12-04T12:05:41.735Z,76.56
2022-12-04T12:09:29.725Z,76.72
2022-12-04T12:13:07.920Z,76.66
2022-12-04T12:16:51.361Z,76.91
2022-12-04T12:20:24.792Z,76.75
2022-12-04T12:23:58.730Z,77.03
2022-12-04T12:27:43.070Z,77.16
2022-12-04T12:31:37.648Z,76.98
2022-12-04T12:35:06.502Z,77.01
2022-12-04T12:38:40.769Z,77.07
2022-12-04T12:42:12.792Z,76.90
2022-12-04T12:45:47.657Z,76.95
2022-12-04T12:49:21.101Z,76.96
2022-12-04T12:52:55.302Z,76.74
2022-12-04T12:56:24.833Z,76.66
2022-12-04T12:59:55.509Z,76.80
2022-12-04T13:03:31.682Z,76.84
2022-12-04T13:07:12.135Z,76.68
2022-12-04T13:10:46.157Z,76.85
2022-12-04T13:14:16.426Z,76.95
2022-12-04T13:17:44.166Z,76.88
2022-12-04T13:21:22.125Z,76.95
2022-12-04T13:25:05.295Z,76.97
2022-12-04T13:28:38.200Z,77.28
2022-12-04T13:32:33.813Z,77.24
2022-12-04T13:36:10.405Z,77.25
2022-12-04T13:40:15.577Z,77.46
2022-12-04T13:43:48.651Z,77.31
2022-12-04T13:47:26.778Z,77.26
2022-12-04T13:51:08.446Z,77.34
2022-12-04T13:54:36.419Z,77.39
2022-12-04T13:58:05.128Z,77.26
2022-12-04T14:01:40.304Z,77.12
2022-12-04T14:05:12.650Z,77.30
2022-12-04T14:08:46.398Z,77.12
2022-12-04T14:12:16.615Z,77.33
2022-12-04T14:15:43.733Z,77.13
2022-12-04T14:19:26.040Z,77.10
2022-12-04T14:22:52.317Z,77.16
2022-12-04T14:30:23.625Z,76.94
2022-12-04T14:33:54.795Z,77.04
2022-12-04T14:37:28.150Z,77.23
2022-12-04T14:40:56.383Z,77.35
2022-12-04T14:44:28.985Z,77.23
2022-12-04T14:48:11.522Z,77.47
2022-12-04T14:51:42.257Z,77.63
2022-12-04T14:55:23.815Z,77.55
2022-12-04T14:58:50.944Z,77.59
2022-12-04T15:02:21.312Z,77.36
2022-12-04T15:05:48.622Z,77.38
2022-12-04T15:09:38.859Z,77.49
2022-12-04T15:13:05.491Z,77.63
2022-12-04T15:16:31.906Z,77.48
2022-12-04T15:20:09.962Z,77.61
2022-12-04T15:23:41.609Z,77.53
2022-12-04T15:27:10.884Z,77.68
2022-12-04T15:30:41.967Z,77.53
2022-12-04T15:34:15.907Z,77.27
2022-12-04T15:37:44.001Z,77.05
2022-12-04T15:41:34.617Z,77.37
2022-12-04T15:45:02.820Z,77.33
2022-12-04T15:48:32.537Z,77.22
2022-12-04T15:52:15.962Z,77.29
2022-12-04T15:55:51.401Z,77.53
2022-12-04T15:59:19.799Z,77.82
2022-12-04T16:02:47.763Z,77.66
2022-12-04T16:06:22.186Z,77.56
2022-12-04T16:10:03.174Z,77.80
2022-12-04T16:13:35.980Z,77.74
2022-12-04T16:17:06.159Z,77.68
2022-12-04T16:20:34.052Z,77.62
2022-12-04T16:24:06.282Z,77.66
2022-12-04T16:27:33.025Z,77.71
2022-12-04T16:31:00.500Z,77.70
2022-12-04T16:34:28.156Z,77.47
2022-12-04T16:37:54.891Z,77.54
2022-12-04T16:41:25.534Z,77.56
2022-12-04T16:44:55.218Z,77.46
2022-12-04T16:48:27.838Z,77.51
2022-12-04T16:51:59.318Z,77.34
2022-12-04T16:55:33.518Z,77.62
2022-12-04T16:59:02.478Z,77.53
2022-12-04T17:02:30.451Z,77.42
2022-12-04T17:05:58.508Z,77.50
2022-12-04T17:09:25.929Z,77.51
2022-12-04T17:12:54.727Z,77.87
2022-12-04T17:16:22.554Z,77.72
2022-12-04T17:19:49.689Z,77.79
2022-12-04T17:23:16.222Z,77.87
2022-12-04T17:26:42.802Z,78.03
2022-12-04T17:30:11.485Z,77.83
2022-12-04T17:33:39.412Z,77.76
2022-12-04T17:37:05.958Z,77.82
2022-12-04T17:40:33.390Z,78.00
2022-12-04T17:44:02.425Z,77.80
2022-12-04T17:47:29.616Z,77.63
2022-12-04T17:51:10.874Z,77.65
2022-12-04T17:54:43.762Z,77.61
2022-12-04T17:58:11.053Z,77.57
2022-12-04T18:01:40.534Z,77.67
2022-12-04T18:05:10.863Z,77.71
2022-12-04T18:08:38.340Z,77.87
2022-12-04T18:12:05.422Z,77.81
2022-12-04T18:15:31.854Z,77.94
2022-12-04T18:19:02.567Z,77.85
2022-12-04T18:22:30.669Z,77.95
2022-12-04T18:25:59.662Z,77.90
2022-12-04T18:29:27.823Z,77.76
2022-12-04T18:32:58.511Z,77.94
2022-12-04T18:36:27.595Z,78.06
2022-12-04T18:39:54.677Z,78.14
2022-12-04T18:43:22.172Z,78.09
2022-12-04T18:46:53.535Z,78.12
2022-12-04T18:50:20.297Z,78.36
2022-12-04T18:53:47.430Z,78.14
2022-12-04T18:57:14.712Z,78.19
2022-12-04T19:00:42.556Z,78.08
2022-12-04T19:04:11.689Z,78.11
2022-12-04T19:07:39.106Z,77.87
2022-12-04T19:11:12.215Z,77.80
2022-12-04T19:14:40.609Z,77.79
2022-12-04T19:18:10.759Z,77.85
2022-12-04T19:21:41.920Z,78.06
2022-12-04T19:25:14.288Z,78.36
2022-12-04T19:28:45.259Z,78.35
2022-12-04T19:32:14.342Z,78.15
2022-12-04T19:35:41.121Z,78.23
2022-12-04T19:39:09.666Z,78.27
2022-12-04T19:42:36.867Z,78.22
2022-12-04T19:46:04.544Z,78.16
2022-12-04T19:49:31.365Z,78.24
2022-12-04T19:53:00.591Z,78.43
2022-12-04T19:56:31.632Z,78.35
2022-12-04T19:59:58.424Z,78.24
2022-12-04T20:03:26.738Z,78.16
2022-12-04T20:06:53.688Z,78.06
2022-12-04T20:10:22.953Z,77.94
2022-12-04T20:13:55.627Z,77.92
2022-12-04T20:17:22.536Z,78.14
2022-12-04T20:20:58.025Z,78.01
2022-12-04T20:24:25.249Z,77.98
2022-12-04T20:27:51.810Z,78.07
2022-12-04T20:31:22.061Z,78.08
2022-12-04T20:34:49.875Z,78.19
2022-12-04T20:38:19.188Z,78.27
2022-12-04T20:41:46.822Z,78.28
2022-12-04T20:45:14.292Z,78.31
2022-12-04T20:48:49.198Z,78.57
2022-12-04T20:52:16.155Z,78.43
2022-12-04T20:55:44.389Z,78.40
2022-12-04T20:59:17.051Z,78.29
2022-12-04T21:02:45.057Z,78.17
2022-12-04T21:06:20.267Z,78.33
2022-12-04T21:09:51.044Z,78.29
2022-12-04T21:13:35.760Z,78.24
2022-12-04T21:17:18.585Z,78.37
2022-12-04T21:20:45.594Z,78.39
2022-12-04T21:24:19.985Z,78.16
2022-12-04T21:27:49.531Z,78.14
2022-12-04T21:31:29.158Z,78.14
2022-12-04T21:34:56.485Z,78.19
2022-12-04T21:38:26.233Z,78.25
2022-12-04T21:42:11.071Z,78.23
2022-12-04T21:45:38.265Z,78.26
2022-12-04T21:49:05.244Z,78.34
2022-12-04T21:52:39.925Z,78.27
2022-12-04T21:56:07.546Z,78.38
2022-12-04T21:59:41.886Z,78.59
2022-12-04T22:03:14.642Z,78.59
2022-12-04T22:06:50.393Z,78.41
2022-12-04T22:10:21.270Z,78.69
2022-12-04T22:13:51.331Z,78.53
2022-12-04T22:17:18.163Z,78.61
2022-12-04T22:20:52.307Z,78.67
2022-12-04T22:24:19.406Z,78.49
2022-12-04T22:27:50.052Z,78.54
2022-12-04T22:31:19.801Z,78.48
2022-12-04T22:34:48.854Z,78.46
2022-12-04T22:38:18.360Z,78.30
2022-12-04T22:41:46.821Z,78.23
2022-12-04T22:45:14.276Z,78.33
2022-12-04T22:48:44.085Z,78.30
2022-12-04T22:52:13.732Z,78.37
2022-12-04T22:55:42.132Z,78.31
2022-12-04T22:59:09.376Z,78.48
2022-12-04T23:02:37.986Z,78.51
2022-12-04T23:06:05.012Z,78.60
2022-12-04T23:09:32.032Z,78.52
2022-12-04T23:12:58.989Z,78.64
2022-12-04T23:16:26.609Z,78.71
2022-12-04T23:19:53.520Z,78.64
2022-12-04T23:23:20.204Z,78.68
2022-12-04T23:26:50.156Z,78.81
2022-12-04T23:30:20.223Z,78.76
2022-12-04T23:33:52.432Z,78.70
2022-12-04T23:37:24.298Z,78.64
2022-12-04T23:40:53.451Z,78.50
2022-12-04T23:44:20.200Z,78.23
2022-12-04T23:47:49.140Z,78.38
2022-12-04T23:51:21.063Z,78.45
2022-12-04T23:54:48.571Z,78.35
2022-12-04T23:58:15.429Z,78.38
